Time;durP1;ratioP1;P1;durP2;ratioP2;P2;SDS_P1;SDS_P2;PMS_P1;PMS_P2;Temp;Humidity;BMP_temperature;BMP_pressure;BME280_temperature;BME280_humidity;BME280_pressure;Samples;Min_cycle;Max_cycle;Signal;HPM_P1;HPM_P2
2023/04/15 00:00:36;;;;;;;21.55;7.70;;;;;;;6.87;97.99;100595.00;5072786;28;20419;-73
2023/04/15 00:03:02;;;;;;;21.05;7.60;;;;;;;6.92;98.65;100593.34;5072859;28;20115;-74
2023/04/15 00:05:31;;;;;;;19.75;7.70;;;;;;;6.80;99.87;100598.41;5072990;28;20082;-73
2023/04/15 00:07:57;;;;;;;19.77;7.43;;;;;;;6.73;99.85;100601.81;5072728;28;20021;-72
2023/04/15 00:10:23;;;;;;;21.15;7.60;;;;;;;6.65;99.89;100592.91;5072850;28;20052;-73
2023/04/15 00:12:49;;;;;;;20.50;7.72;;;;;;;6.72;100.00;100592.16;5072448;28;20029;-73
2023/04/15 00:15:15;;;;;;;21.27;8.18;;;;;;;6.71;100.00;100593.00;5072850;28;20040;-73
2023/04/15 00:17:40;;;;;;;20.65;8.05;;;;;;;6.65;100.00;100587.66;5072676;28;20025;-73
2023/04/15 00:20:06;;;;;;;21.13;7.90;;;;;;;6.66;100.00;100590.31;5072495;28;20115;-73
2023/04/15 00:22:32;;;;;;;23.38;8.43;;;;;;;6.57;100.00;100593.66;5072471;28;20066;-73
2023/04/15 00:24:57;;;;;;;21.63;8.48;;;;;;;6.43;100.00;100582.91;5073077;28;20472;-73
2023/04/15 00:27:23;;;;;;;21.90;8.40;;;;;;;6.50;100.00;100588.28;5072456;28;20036;-73
2023/04/15 00:29:48;;;;;;;20.77;8.35;;;;;;;6.47;100.00;100586.50;5072452;28;20112;-73
2023/04/15 00:32:14;;;;;;;21.02;8.88;;;;;;;6.47;100.00;100583.88;5072559;28;20032;-67
2023/04/15 00:34:40;;;;;;;21.60;8.98;;;;;;;6.51;100.00;100590.94;5072332;28;20060;-67
2023/04/15 00:37:05;;;;;;;22.42;9.88;;;;;;;6.44;100.00;100581.19;5071059;28;20032;-67
2023/04/15 00:39:31;;;;;;;22.05;9.10;;;;;;;6.45;100.00;100582.94;5071267;28;20028;-68
2023/04/15 00:41:56;;;;;;;21.50;9.25;;;;;;;6.41;100.00;100594.28;5072356;28;20060;-67
2023/04/15 00:44:22;;;;;;;22.10;9.27;;;;;;;6.37;100.00;100592.44;5072505;28;20025;-68
2023/04/15 00:46:50;;;;;;;21.55;9.38;;;;;;;6.28;100.00;100587.91;5072214;28;20551;-67
2023/04/15 00:49:17;;;;;;;22.88;9.70;;;;;;;6.24;100.00;100589.59;5072363;28;20136;-67
2023/04/15 00:51:43;;;;;;;22.30;9.85;;;;;;;6.23;100.00;100585.22;5072260;28;20024;-67
2023/04/15 00:54:09;;;;;;;22.27;9.15;;;;;;;6.22;100.00;100595.69;5072442;28;20028;-67
2023/04/15 00:56:36;;;;;;;22.73;9.57;;;;;;;6.17;100.00;100598.19;5072319;28;20033;-67
2023/04/15 00:59:03;;;;;;;21.75;9.43;;;;;;;6.10;100.00;100593.69;5072070;28;20082;-67
2023/04/15 01:01:28;;;;;;;22.55;9.95;;;;;;;6.16;100.00;100592.94;5072406;28;20024;-67
2023/04/15 01:03:56;;;;;;;21.63;9.82;;;;;;;6.06;100.00;100590.16;5072189;28;20036;-67
2023/04/15 01:06:22;;;;;;;21.23;9.73;;;;;;;5.98;100.00;100585.59;5068522;28;20447;-67
2023/04/15 01:08:47;;;;;;;22.73;10.18;;;;;;;5.80;100.00;100589.63;5072263;28;20067;-68
2023/04/15 01:11:14;;;;;;;22.48;9.50;;;;;;;5.81;100.00;100585.25;5072309;28;20426;-66
2023/04/15 01:13:40;;;;;;;23.42;10.57;;;;;;;5.83;100.00;100584.41;5072130;28;20486;-69
2023/04/15 01:16:07;;;;;;;22.13;9.77;;;;;;;5.85;100.00;100589.69;5072485;28;20020;-69
2023/04/15 01:18:33;;;;;;;21.88;10.50;;;;;;;5.80;100.00;100594.84;5071917;28;20062;-69
2023/04/15 01:21:03;;;;;;;23.15;10.00;;;;;;;5.73;100.00;100585.09;5071968;28;20029;-70
2023/04/15 01:23:29;;;;;;;22.15;10.32;;;;;;;5.66;100.00;100591.94;5072128;28;20077;-69
2023/04/15 01:25:55;;;;;;;21.60;9.88;;;;;;;5.69;100.00;100591.13;5074372;28;20032;-69
2023/04/15 01:28:21;;;;;;;22.27;10.07;;;;;;;5.70;100.00;100596.41;5071511;28;20463;-68
2023/04/15 01:30:46;;;;;;;22.85;10.77;;;;;;;5.59;100.00;100592.66;5075739;28;20051;-69
2023/04/15 01:33:12;;;;;;;22.00;10.32;;;;;;;5.57;100.00;100594.38;5075440;28;20032;-68
2023/04/15 01:35:37;;;;;;;22.80;10.45;;;;;;;5.52;100.00;100590.78;5075628;28;20070;-67
2023/04/15 01:38:07;;;;;;;21.75;10.05;;;;;;;5.49;100.00;100593.34;5074162;28;20036;-68
2023/04/15 01:40:34;;;;;;;21.92;10.18;;;;;;;5.51;100.00;100596.88;5075260;28;20033;-72
2023/04/15 01:43:01;;;;;;;21.88;9.80;;;;;;;5.54;100.00;100594.31;5075299;28;20033;-68
2023/04/15 01:45:26;;;;;;;23.35;10.35;;;;;;;5.46;100.00;100596.81;5075149;28;20036;-71
2023/04/15 01:47:52;;;;;;;22.50;10.75;;;;;;;5.50;100.00;100593.38;5075289;28;20036;-68
2023/04/15 01:50:17;;;;;;;22.85;10.85;;;;;;;5.46;100.00;100596.81;5075423;28;20479;-68
2023/04/15 01:52:43;;;;;;;22.73;11.15;;;;;;;5.47;100.00;100593.31;5075357;28;20033;-70
2023/04/15 01:55:10;;;;;;;23.17;11.05;;;;;;;5.49;100.00;100595.94;5075051;28;20021;-69
2023/04/15 01:57:35;;;;;;;21.95;11.10;;;;;;;5.45;100.00;100588.91;5075098;28;20024;-72
2023/04/15 02:00:02;;;;;;;23.85;11.35;;;;;;;5.38;100.00;100590.50;5074950;28;20032;-72
2023/04/15 02:02:28;;;;;;;22.90;11.70;;;;;;;5.34;100.00;100583.41;5074982;28;20460;-71
2023/04/15 02:04:53;;;;;;;22.40;10.98;;;;;;;5.38;100.00;100582.63;5075244;28;20085;-73
2023/04/15 02:07:19;;;;;;;24.48;11.82;;;;;;;5.28;100.00;100583.28;5074901;28;20025;-73
2023/04/15 02:09:45;;;;;;;22.63;11.18;;;;;;;5.32;100.00;100586.00;5074807;28;20036;-73
2023/04/15 02:12:10;;;;;;;22.88;11.50;;;;;;;5.32;100.00;100588.63;5074991;28;20042;-72
2023/04/15 02:14:36;;;;;;;23.73;11.63;;;;;;;5.33;100.00;100587.78;5074710;28;20035;-72
2023/04/15 02:17:06;;;;;;;23.63;11.98;;;;;;;5.31;100.00;100593.84;5074646;28;20035;-72
2023/04/15 02:19:34;;;;;;;23.15;12.07;;;;;;;5.30;100.00;100592.06;5074866;28;20035;-73
2023/04/15 02:22:03;;;;;;;22.75;12.40;;;;;;;5.20;100.00;100596.22;5074553;28;20031;-73
2023/04/15 02:24:29;;;;;;;24.88;12.25;;;;;;;5.18;100.00;100601.41;5074468;28;20060;-73
2023/04/15 02:26:55;;;;;;;24.55;12.35;;;;;;;5.07;100.00;100605.56;5074721;28;20025;-73
2023/04/15 02:29:21;;;;;;;24.63;12.98;;;;;;;4.98;100.00;100607.94;5074398;28;20487;-71
2023/04/15 02:31:47;;;;;;;23.70;12.07;;;;;;;4.94;100.00;100612.22;5074354;28;20064;-72
2023/04/15 02:34:13;;;;;;;25.13;12.32;;;;;;;4.82;100.00;100615.44;5074891;28;20062;-73
2023/04/15 02:36:39;;;;;;;24.63;12.60;;;;;;;4.80;100.00;100619.75;5073931;28;20029;-67
2023/04/15 02:39:05;;;;;;;23.23;12.45;;;;;;;4.75;100.00;100617.84;5074228;28;20028;-67
2023/04/15 02:41:30;;;;;;;24.25;12.43;;;;;;;4.72;100.00;100616.06;5074370;28;20154;-66
2023/04/15 02:43:56;;;;;;;24.52;12.55;;;;;;;4.70;100.00;100615.13;5074173;28;20017;-67
2023/04/15 02:46:21;;;;;;;23.02;12.15;;;;;;;4.66;100.00;100614.19;5073968;28;20443;-67
2023/04/15 02:48:48;;;;;;;23.38;12.63;;;;;;;4.54;100.00;100619.09;5074267;28;20136;-67
2023/04/15 02:51:18;;;;;;;23.75;12.43;;;;;;;4.62;100.00;100622.81;5074299;28;20055;-67
2023/04/15 02:53:45;;;;;;;27.17;14.25;;;;;;;4.57;100.00;100628.78;5073854;28;20387;-66
2023/04/15 02:56:11;;;;;;;23.25;12.38;;;;;;;4.54;100.00;100624.34;5074144;28;20027;-67
2023/04/15 02:58:37;;;;;;;25.40;13.07;;;;;;;4.48;100.00;100625.06;5073730;28;20512;-67
2023/04/15 03:01:02;;;;;;;24.25;13.23;;;;;;;4.48;100.00;100630.31;5074015;28;20025;-67
2023/04/15 03:03:27;;;;;;;24.42;13.43;;;;;;;4.45;100.00;100632.84;5074009;28;20025;-67
2023/04/15 03:05:53;;;;;;;23.77;13.63;;;;;;;4.43;100.00;100628.44;5073753;28;20449;-68
2023/04/15 03:08:19;;;;;;;25.02;13.60;;;;;;;4.38;100.00;100630.91;5073653;28;20023;-67
2023/04/15 03:10:45;;;;;;;24.63;13.23;;;;;;;4.36;100.00;100628.25;5073755;28;20536;-67
2023/04/15 03:13:10;;;;;;;24.52;13.30;;;;;;;4.29;100.00;100638.53;5073552;28;20040;-67
2023/04/15 03:15:35;;;;;;;24.38;13.48;;;;;;;4.33;100.00;100632.53;5073541;28;20100;-67
2023/04/15 03:18:01;;;;;;;24.35;13.43;;;;;;;4.30;100.00;100635.94;5073853;28;20032;-66
2023/04/15 03:20:26;;;;;;;24.10;13.90;;;;;;;4.25;100.00;100639.28;5073751;28;20056;-67
2023/04/15 03:22:52;;;;;;;24.95;13.75;;;;;;;4.21;100.00;100634.81;5072514;28;20020;-67
2023/04/15 03:25:17;;;;;;;24.20;13.55;;;;;;;4.19;100.00;100642.63;5073607;28;20036;-69
2023/04/15 03:27:43;;;;;;;24.17;13.45;;;;;;;4.13;100.00;100638.09;5073172;28;20056;-68
2023/04/15 03:30:08;;;;;;;23.92;13.43;;;;;;;4.10;100.00;100645.00;5073530;28;20032;-67
2023/04/15 03:32:34;;;;;;;25.13;14.50;;;;;;;4.05;100.00;100647.50;5073104;28;20483;-67
2023/04/15 03:34:59;;;;;;;24.15;13.50;;;;;;;3.96;100.00;100660.28;5073195;28;20025;-67
2023/04/15 03:37:25;;;;;;;24.65;13.73;;;;;;;3.92;100.00;100658.47;5072150;28;20033;-67
2023/04/15 03:39:50;;;;;;;24.95;14.52;;;;;;;3.88;100.00;100656.59;5073367;28;20070;-67
2023/04/15 03:42:15;;;;;;;25.63;14.85;;;;;;;3.86;100.00;100663.50;5072981;28;20031;-69
2023/04/15 03:44:41;;;;;;;25.73;14.98;;;;;;;3.78;100.00;100655.44;5073182;28;20064;-70
2023/04/15 03:47:06;;;;;;;25.63;14.48;;;;;;;3.72;100.00;100663.97;5072385;28;20128;-68
2023/04/15 03:49:32;;;;;;;24.70;14.20;;;;;;;3.66;100.00;100666.44;5072662;28;20464;-69
2023/04/15 03:51:57;;;;;;;24.73;15.00;;;;;;;3.60;100.00;100671.47;5073121;28;20051;-68
2023/04/15 03:54:22;;;;;;;25.65;14.10;;;;;;;3.55;100.00;100675.66;5068937;28;20444;-68
2023/04/15 03:56:47;;;;;;;24.35;14.60;;;;;;;3.50;100.00;100675.53;5071763;28;20028;-69
2023/04/15 03:59:13;;;;;;;25.52;14.50;;;;;;;3.49;100.00;100676.38;5073074;28;20033;-71
2023/04/15 04:01:38;;;;;;;26.02;15.05;;;;;;;3.46;100.00;100681.50;5072774;28;20353;-68
2023/04/15 04:04:03;;;;;;;25.48;15.00;;;;;;;3.51;100.00;100684.25;5072891;28;20499;-68
2023/04/15 04:06:29;;;;;;;26.27;15.60;;;;;;;3.49;100.00;100687.72;5072746;28;20033;-68
2023/04/15 04:08:55;;;;;;;25.20;15.05;;;;;;;3.52;100.00;100689.53;5072609;28;20036;-69
2023/04/15 04:11:20;;;;;;;25.75;15.40;;;;;;;3.51;100.00;100693.00;5073099;28;20025;-70
2023/04/15 04:13:46;;;;;;;25.25;15.05;;;;;;;3.53;100.00;100698.28;5072699;28;20033;-69
2023/04/15 04:16:11;;;;;;;25.52;15.45;;;;;;;3.58;100.00;100712.34;5072588;28;20383;-69
2023/04/15 04:18:36;;;;;;;26.88;15.65;;;;;;;3.57;100.00;100706.25;5072668;28;20479;-68
2023/04/15 04:21:02;;;;;;;26.65;15.88;;;;;;;3.58;100.00;100714.97;5072531;28;20097;-68
2023/04/15 04:23:27;;;;;;;27.25;16.30;;;;;;;3.58;100.00;100718.50;5072489;28;20107;-67
2023/04/15 04:25:53;;;;;;;27.08;16.00;;;;;;;3.63;100.00;100718.63;5068754;28;20123;-67
2023/04/15 04:28:18;;;;;;;25.52;15.27;;;;;;;3.66;100.00;100721.34;5072395;28;20107;-67
2023/04/15 04:30:44;;;;;;;25.23;15.07;;;;;;;3.64;100.00;100723.00;5072504;28;20035;-69
2023/04/15 04:33:09;;;;;;;25.27;15.32;;;;;;;3.64;100.00;100726.50;5072633;28;20040;-67
2023/04/15 04:35:36;;;;;;;26.30;14.98;;;;;;;3.69;100.00;100728.38;5071241;28;20021;-67
2023/04/15 04:38:02;;;;;;;26.95;15.48;;;;;;;3.68;100.00;100732.72;5072624;28;20503;-67
2023/04/15 04:40:28;;;;;;;26.63;15.45;;;;;;;3.69;100.00;100742.34;5072292;28;20543;-68
2023/04/15 04:42:53;;;;;;;25.90;15.88;;;;;;;3.71;100.00;100738.03;5072376;28;20064;-68
2023/04/15 04:45:19;;;;;;;26.38;16.13;;;;;;;3.71;100.00;100745.88;5072336;28;20126;-67
2023/04/15 04:47:46;;;;;;;26.67;16.08;;;;;;;3.72;100.00;100749.41;5072467;28;20102;-68
2023/04/15 04:50:12;;;;;;;26.80;15.52;;;;;;;3.74;100.00;100751.22;5072564;28;20044;-67
2023/04/15 04:52:38;;;;;;;26.20;15.88;;;;;;;3.76;100.00;100762.59;5072404;28;20029;-67
2023/04/15 04:55:04;;;;;;;26.55;16.25;;;;;;;3.74;100.00;100760.78;5072194;28;20112;-67
2023/04/15 04:57:29;;;;;;;26.38;16.00;;;;;;;3.74;100.00;100753.84;5072255;28;20040;-67
2023/04/15 04:59:54;;;;;;;26.67;16.25;;;;;;;3.78;100.00;100768.75;5073981;28;20087;-67
2023/04/15 05:02:20;;;;;;;27.02;16.60;;;;;;;3.78;100.00;100768.75;5076134;28;20029;-69
2023/04/15 05:04:45;;;;;;;27.10;16.17;;;;;;;3.83;100.00;100775.03;5075999;28;20024;-67
2023/04/15 05:07:11;;;;;;;25.75;16.17;;;;;;;3.86;100.00;100774.25;5076240;28;20056;-67
2023/04/15 05:09:36;;;;;;;26.30;16.25;;;;;;;3.89;100.00;100778.66;5075905;28;20037;-67
2023/04/15 05:12:03;;;;;;;25.88;16.50;;;;;;;3.93;100.00;100776.22;5075918;28;20107;-67
2023/04/15 05:14:28;;;;;;;26.70;16.33;;;;;;;3.92;100.00;100784.00;5075964;28;20440;-67
2023/04/15 05:16:54;;;;;;;27.20;16.27;;;;;;;3.93;100.00;100785.75;5075755;28;20051;-68
2023/04/15 05:19:19;;;;;;;27.27;16.52;;;;;;;3.98;100.00;100797.25;5075683;28;20024;-68
2023/04/15 05:21:44;;;;;;;26.17;16.35;;;;;;;3.99;100.00;100801.63;5075868;28;20387;-69
2023/04/15 05:24:10;;;;;;;26.75;17.00;;;;;;;4.02;100.00;100804.38;5075625;28;20115;-67
2023/04/15 05:26:35;;;;;;;28.35;16.63;;;;;;;4.07;100.00;100804.50;5075735;28;20024;-68
2023/04/15 05:29:01;;;;;;;27.95;17.08;;;;;;;4.10;100.00;100809.81;5075493;28;20479;-68
2023/04/15 05:31:26;;;;;;;27.38;17.30;;;;;;;4.08;100.00;100811.50;5075593;28;20074;-67
2023/04/15 05:33:51;;;;;;;27.15;17.02;;;;;;;4.06;100.00;100814.06;5075668;28;20032;-67
2023/04/15 05:36:17;;;;;;;26.23;17.05;;;;;;;4.08;100.00;100821.94;5075422;28;20073;-69
2023/04/15 05:38:42;;;;;;;27.15;16.52;;;;;;;4.09;100.00;100822.03;5073866;28;20047;-69
2023/04/15 05:41:08;;;;;;;28.35;17.38;;;;;;;4.11;100.00;100830.81;5075580;28;20028;-68
2023/04/15 05:43:33;;;;;;;29.38;17.77;;;;;;;4.13;100.00;100834.34;5075291;28;20052;-69
2023/04/15 05:45:58;;;;;;;27.23;17.27;;;;;;;4.17;100.00;100837.94;5075101;28;20503;-70
2023/04/15 05:48:24;;;;;;;28.30;16.83;;;;;;;4.19;100.00;100837.16;5075492;28;20119;-68
2023/04/15 05:50:49;;;;;;;27.73;17.08;;;;;;;4.22;100.00;100849.44;5057355;28;20029;-69
2023/04/15 05:53:15;;;;;;;26.50;17.00;;;;;;;4.24;100.00;100846.84;5075429;28;20033;-68
2023/04/15 05:55:40;;;;;;;27.55;16.58;;;;;;;4.22;100.00;100854.66;5075560;28;20388;-70
2023/04/15 05:58:05;;;;;;;28.73;17.52;;;;;;;4.22;100.00;100859.03;5073829;28;20032;-70
2023/04/15 06:00:31;;;;;;;26.98;17.08;;;;;;;4.26;100.00;100863.50;5075218;28;20029;-68
2023/04/15 06:02:57;;;;;;;28.63;18.30;;;;;;;4.30;100.00;100866.25;5074921;28;20027;-69
2023/04/15 06:05:23;;;;;;;25.77;16.77;;;;;;;4.33;100.00;100865.47;5075213;28;20036;-71
2023/04/15 06:07:49;;;;;;;26.70;16.88;;;;;;;4.38;100.00;100868.22;5073841;28;20036;-69
2023/04/15 06:10:14;;;;;;;26.58;17.42;;;;;;;4.35;100.00;100876.88;5074279;28;20033;-71
2023/04/15 06:12:40;;;;;;;27.15;16.88;;;;;;;4.41;100.00;100874.44;5074955;28;20115;-68
2023/04/15 06:15:08;;;;;;;26.92;16.83;;;;;;;4.54;100.00;100878.28;5074884;28;20025;-71
2023/04/15 06:17:34;;;;;;;26.77;17.33;;;;;;;4.61;100.00;100884.63;5073319;28;20407;-71
2023/04/15 06:19:59;;;;;;;27.15;17.20;;;;;;;4.70;100.00;100890.09;5074717;28;20036;-69
2023/04/15 06:22:25;;;;;;;26.75;17.30;;;;;;;4.86;100.00;100902.81;5074773;28;20028;-69
2023/04/15 06:24:50;;;;;;;27.50;17.60;;;;;;;4.97;100.00;100900.50;5074543;28;20098;-72
2023/04/15 06:27:16;;;;;;;29.92;20.35;;;;;;;5.07;100.00;100897.28;5074450;28;20110;-71
2023/04/15 06:29:42;;;;;;;26.77;16.83;;;;;;;5.22;100.00;100907.28;5074672;28;20111;-70
2023/04/15 06:32:07;;;;;;;27.48;16.58;;;;;;;5.30;100.00;100911.84;5074459;28;20107;-69
2023/04/15 06:34:33;;;;;;;25.73;16.08;;;;;;;5.46;100.00;100908.81;5074284;28;20126;-70
2023/04/15 06:36:59;;;;;;;27.23;16.38;;;;;;;5.54;100.00;100912.50;5074506;28;20543;-67
2023/04/15 06:39:25;;;;;;;27.65;16.40;;;;;;;5.63;100.00;100921.47;5070267;28;20033;-68
2023/04/15 06:41:51;;;;;;;26.83;16.75;;;;;;;5.80;100.00;100930.66;5074180;28;20434;-68
2023/04/15 06:44:17;;;;;;;26.13;16.10;;;;;;;5.91;100.00;100929.19;5074341;28;20050;-67
2023/04/15 06:46:43;;;;;;;26.40;15.32;;;;;;;6.01;100.00;100934.69;5073818;28;20525;-67
2023/04/15 06:49:08;;;;;;;25.02;15.65;;;;;;;6.13;100.00;100937.63;5074036;28;20056;-70
2023/04/15 06:51:35;;;;;;;24.83;14.50;;;;;;;6.19;100.00;100943.00;5074191;28;20070;-68
2023/04/15 06:54:01;;;;;;;24.95;14.73;;;;;;;6.26;100.00;100933.53;5074012;28;20032;-68
2023/04/15 06:56:27;;;;;;;25.98;15.15;;;;;;;6.33;100.00;100942.44;5074415;28;20024;-68
2023/04/15 06:58:52;;;;;;;24.10;14.40;;;;;;;6.40;100.00;100947.00;5074013;28;20167;-68
2023/04/15 07:01:17;;;;;;;24.00;14.10;;;;;;;6.44;100.00;100952.34;5073787;28;20103;-68
2023/04/15 07:03:43;;;;;;;24.52;15.10;;;;;;;6.51;100.00;100963.88;5073960;28;20070;-67
2023/04/15 07:06:09;;;;;;;23.88;14.25;;;;;;;6.61;100.00;100963.25;5073712;28;20024;-68
2023/04/15 07:08:34;;;;;;;25.27;14.57;;;;;;;6.67;100.00;100959.88;5073706;28;20443;-68
2023/04/15 07:11:00;;;;;;;25.30;14.70;;;;;;;6.75;100.00;100962.66;5073752;28;20464;-69
2023/04/15 07:13:26;;;;;;;24.15;14.20;;;;;;;6.80;100.00;100972.41;5073339;28;20029;-69
2023/04/15 07:15:51;;;;;;;24.65;14.43;;;;;;;6.98;100.00;100974.53;5071893;28;20093;-69
2023/04/15 07:18:16;;;;;;;25.70;14.68;;;;;;;7.15;100.00;100981.91;5067705;28;20479;-68
2023/04/15 07:20:42;;;;;;;25.77;15.05;;;;;;;7.27;100.00;100984.78;5070495;28;20515;-68
2023/04/15 07:23:08;;;;;;;23.88;14.07;;;;;;;7.40;100.00;100980.66;5065051;28;20035;-67
2023/04/15 07:25:33;;;;;;;24.52;14.35;;;;;;;7.47;100.00;100989.53;5067075;28;20468;-68
2023/04/15 07:27:59;;;;;;;24.40;14.90;;;;;;;7.52;100.00;100994.91;5070850;28;20036;-70
2023/04/15 07:30:24;;;;;;;24.70;15.07;;;;;;;7.59;100.00;100997.66;5063189;28;20055;-71
2023/04/15 07:32:50;;;;;;;24.52;14.45;;;;;;;7.67;100.00;101000.44;5068282;28;20151;-71
2023/04/15 07:35:15;;;;;;;25.05;15.32;;;;;;;7.81;100.00;100998.06;5069853;28;20036;-70
2023/04/15 07:37:42;;;;;;;24.23;14.10;;;;;;;7.95;100.00;101011.47;5071030;28;20036;-72
2023/04/15 07:40:08;;;;;;;24.80;14.07;;;;;;;8.05;100.00;101007.25;5068330;28;20016;-72
2023/04/15 07:42:34;;;;;;;24.30;14.38;;;;;;;8.15;100.00;101009.19;5070415;28;20136;-72
2023/04/15 07:45:00;;;;;;;23.45;12.75;;;;;;;8.28;100.00;101016.44;5071849;28;20109;-72
2023/04/15 07:47:25;;;;;;;23.10;12.90;;;;;;;8.38;100.00;101015.72;5070490;28;20066;-72
2023/04/15 07:49:51;;;;;;;22.65;12.00;;;;;;;8.57;100.00;101020.44;5066250;28;20111;-72
2023/04/15 07:52:17;;;;;;;22.63;11.98;;;;;;;8.66;100.00;101021.44;5067785;28;20024;-72
2023/04/15 07:54:44;;;;;;;23.70;12.63;;;;;;;8.77;100.00;101021.63;5070581;28;20036;-72
2023/04/15 07:57:10;;;;;;;22.30;11.30;;;;;;;8.87;100.00;101022.66;5065069;28;20021;-73
2023/04/15 07:59:35;;;;;;;22.00;11.15;;;;;;;9.15;100.00;101028.28;5066739;28;20044;-73
2023/04/15 08:02:01;;;;;;;21.95;11.73;;;;;;;9.60;100.00;101037.63;5066635;28;20445;-73
2023/04/15 08:04:27;;;;;;;21.67;10.80;;;;;;;10.04;100.00;101045.13;5072746;28;20115;-73
2023/04/15 08:06:52;;;;;;;21.65;10.48;;;;;;;10.28;100.00;101040.94;5072842;28;20031;-73
2023/04/15 08:09:18;;;;;;;22.17;10.35;;;;;;;10.51;100.00;101046.44;5072683;28;20036;-73
2023/04/15 08:11:44;;;;;;;20.80;9.25;;;;;;;10.67;100.00;101052.72;5072875;28;20116;-72
2023/04/15 08:14:09;;;;;;;21.20;9.85;;;;;;;10.80;100.00;101049.31;5072746;28;20082;-72
2023/04/15 08:16:35;;;;;;;21.05;9.85;;;;;;;11.14;100.00;101046.88;5064015;28;20025;-70
2023/04/15 08:19:01;;;;;;;20.83;9.98;;;;;;;11.27;100.00;101044.28;5071071;28;20047;-74
2023/04/15 08:21:26;;;;;;;21.55;9.95;;;;;;;11.27;100.00;101063.69;5068469;28;20032;-69
2023/04/15 08:23:52;;;;;;;21.65;10.50;;;;;;;11.48;100.00;101068.19;5071293;28;20029;-69
2023/04/15 08:26:19;;;;;;;21.70;9.88;;;;;;;11.65;100.00;101078.88;5070979;28;20431;-69
2023/04/15 08:28:45;;;;;;;21.17;9.73;;;;;;;11.69;95.68;101074.44;5065305;28;20073;-71
2023/04/15 08:31:14;;;;;;;20.42;8.85;;;;;;;11.71;91.49;101071.81;5066953;28;20029;-68
2023/04/15 08:33:39;;;;;;;23.05;10.48;;;;;;;11.92;93.51;101081.59;5068695;28;20403;-70
2023/04/15 08:36:06;;;;;;;20.10;8.70;;;;;;;12.18;88.10;101079.03;5071309;28;20029;-70
2023/04/15 08:38:32;;;;;;;20.60;8.80;;;;;;;12.58;83.52;101083.47;5069153;28;20045;-70
2023/04/15 08:41:02;;;;;;;20.83;8.50;;;;;;;13.15;78.32;101096.66;5075834;28;20588;-69
2023/04/15 08:43:33;;;;;;;18.88;7.00;;;;;;;13.71;68.07;101097.41;5070277;28;20031;-69
2023/04/15 08:46:00;;;;;;;18.98;6.65;;;;;;;14.14;66.33;101102.50;5072964;28;20041;-71
2023/04/15 08:48:28;;;;;;;18.60;6.65;;;;;;;14.32;65.63;101113.91;5072865;28;20487;-73
2023/04/15 08:50:53;;;;;;;18.83;6.60;;;;;;;14.71;62.87;101110.06;5073257;28;20044;-70
2023/04/15 08:53:19;;;;;;;18.90;6.30;;;;;;;14.76;60.50;101115.34;5071491;28;20024;-69
2023/04/15 08:55:46;;;;;;;19.30;7.20;;;;;;;15.07;60.63;101117.72;5072427;28;20039;-72
2023/04/15 08:58:13;;;;;;;18.45;6.63;;;;;;;15.35;56.64;101126.31;5072157;28;20040;-72
2023/04/15 09:00:39;;;;;;;17.52;6.00;;;;;;;15.79;56.41;101129.38;5073516;28;20024;-69
2023/04/15 09:03:07;;;;;;;19.20;6.32;;;;;;;16.17;53.34;101130.66;5076100;28;20060;-73
2023/04/15 09:05:34;;;;;;;17.40;5.10;;;;;;;16.18;52.30;101153.75;5075639;28;20036;-67
2023/04/15 09:08:00;;;;;;;17.60;5.32;;;;;;;16.17;50.73;101147.53;5073886;28;20098;-67
2023/04/15 09:10:26;;;;;;;15.70;5.18;;;;;;;16.35;50.44;101146.41;5072047;28;20078;-71
2023/04/15 09:12:51;;;;;;;17.23;5.50;;;;;;;16.55;49.02;101153.19;5068177;28;20479;-69
2023/04/15 09:15:17;;;;;;;16.63;5.47;;;;;;;16.67;48.98;101158.38;5072909;28;20094;-72
2023/04/15 09:17:43;;;;;;;17.50;5.70;;;;;;;16.75;48.45;101160.91;5076088;28;20033;-69
2023/04/15 09:20:12;;;;;;;16.70;5.85;;;;;;;16.60;48.82;101161.13;5076845;28;20084;-72
2023/04/15 09:22:38;;;;;;;17.98;5.45;;;;;;;15.90;49.00;101161.22;5073483;28;20056;-73
2023/04/15 09:25:25;;;;;;;16.58;5.63;;;;;;;15.29;53.73;101166.31;5070933;28;20033;-74
2023/04/15 09:27:53;;;;;;;18.05;6.22;;;;;;;14.83;53.27;101178.28;5073559;28;20124;-72
2023/04/15 09:30:18;;;;;;;17.58;5.75;;;;;;;14.61;54.00;101188.16;5072202;28;20029;-71
2023/04/15 09:32:51;;;;;;;17.60;6.30;;;;;;;14.74;56.43;101183.69;5070428;28;20424;-70
2023/04/15 09:35:16;;;;;;;17.38;5.68;;;;;;;14.83;52.52;101188.91;5065228;28;20483;-70
2023/04/15 09:37:42;;;;;;;16.60;5.45;;;;;;;14.72;53.40;101190.78;5068500;28;20029;-70
2023/04/15 09:40:08;;;;;;;17.08;5.57;;;;;;;14.74;52.99;101189.00;5072855;28;20036;-69
2023/04/15 09:42:34;;;;;;;16.70;5.45;;;;;;;14.88;52.44;101194.19;5067295;28;20472;-74
2023/04/15 09:45:12;;;;;;;16.98;5.60;;;;;;;15.44;53.59;101191.94;5071412;28;20024;-71
2023/04/15 09:47:38;;;;;;;17.17;5.78;;;;;;;16.41;49.63;101196.13;5065668;28;20510;-70
2023/04/15 09:50:03;;;;;;;14.25;4.95;;;;;;;17.07;47.41;101187.09;5073320;28;20035;-69
2023/04/15 09:52:29;;;;;;;14.07;4.63;;;;;;;17.60;45.35;101200.41;5070444;28;20110;-73
2023/04/15 09:54:58;;;;;;;15.43;4.50;;;;;;;18.30;43.98;101207.00;5078887;28;20107;-72
2023/04/15 09:57:24;;;;;;;11.40;4.18;;;;;;;18.73;42.01;101200.66;5072313;28;20031;-72
2023/04/15 09:59:50;;;;;;;14.95;4.70;;;;;;;19.04;41.94;101210.66;5069487;28;20033;-72
2023/04/15 10:02:19;;;;;;;14.90;4.80;;;;;;;19.54;41.82;101206.69;5070876;28;20031;-69
2023/04/15 10:04:47;;;;;;;14.88;5.00;;;;;;;20.23;40.46;101210.13;5072544;28;20077;-69
2023/04/15 10:07:14;;;;;;;16.42;5.18;;;;;;;20.42;40.06;101212.25;5070044;28;20028;-69
2023/04/15 10:09:39;;;;;;;14.38;5.10;;;;;;;20.50;39.28;101213.78;5069974;28;20036;-71
2023/04/15 10:12:05;;;;;;;15.75;5.10;;;;;;;20.76;39.48;101209.38;5073090;28;20138;-69
2023/04/15 10:14:33;;;;;;;16.67;5.40;;;;;;;20.90;38.20;101223.25;5072700;28;20035;-72
2023/04/15 10:17:01;;;;;;;15.43;5.20;;;;;;;21.55;37.73;101226.47;5075162;28;20020;-71
2023/04/15 10:19:35;;;;;;;15.30;4.40;;;;;;;21.58;36.44;101218.28;5070596;28;20027;-69
2023/04/15 10:22:01;;;;;;;15.30;4.97;;;;;;;21.78;36.19;101216.69;5072347;28;20357;-68
2023/04/15 10:24:27;;;;;;;14.20;4.50;;;;;;;21.74;37.09;101223.09;5074790;28;20032;-68
2023/04/15 10:26:53;;;;;;;15.40;5.03;;;;;;;22.06;36.06;101216.53;5074478;28;20110;-70
2023/04/15 10:29:19;;;;;;;14.88;4.90;;;;;;;22.53;36.76;101231.81;5074352;28;20498;-68
2023/04/15 10:31:45;;;;;;;11.90;4.15;;;;;;;22.27;34.49;101230.13;5073574;28;20136;-68
2023/04/15 10:34:11;;;;;;;12.32;3.90;;;;;;;22.76;34.03;101235.41;5074399;28;20056;-70
2023/04/15 10:36:37;;;;;;;13.15;4.28;;;;;;;23.02;33.51;101239.72;5074299;28;20486;-69
2023/04/15 10:39:32;;;;;;;9.88;3.70;;;;;;;22.89;33.67;101233.97;5074559;28;20051;-68
2023/04/15 10:42:18;;;;;;;12.30;3.85;;;;;;;23.11;33.46;101238.50;5073083;28;20477;-70
2023/04/15 10:44:51;;;;;;;11.52;3.60;;;;;;;23.59;32.42;101240.03;5072092;28;20498;-69
2023/04/15 10:47:18;;;;;;;10.30;3.80;;;;;;;24.11;32.59;101235.97;5074192;28;20045;-69
2023/04/15 10:49:47;;;;;;;13.10;4.20;;;;;;;24.59;31.05;101242.72;5074098;28;20082;-69
2023/04/15 10:52:14;;;;;;;12.10;4.30;;;;;;;24.85;29.31;101233.34;5074368;28;20020;-69
2023/04/15 10:54:40;;;;;;;12.70;4.38;;;;;;;24.88;30.86;101243.13;5072940;28;20471;-73
2023/04/15 10:57:06;;;;;;;13.18;4.50;;;;;;;24.72;30.54;101240.31;5068785;28;20031;-74
2023/04/15 10:59:35;;;;;;;10.82;4.10;;;;;;;24.31;30.73;101249.41;5073988;28;20119;-72
2023/04/15 11:02:03;;;;;;;10.93;3.90;;;;;;;24.36;30.54;101243.78;5070342;28;20023;-72
2023/04/15 11:04:54;;;;;;;11.35;4.00;;;;;;;24.20;31.52;101254.41;5068518;28;20547;-73
2023/04/15 11:07:35;;;;;;;11.75;3.60;;;;;;;24.41;30.64;101246.28;5073158;28;20443;-73